KCUH/CUH METAR and TAF weather

Enter ICAO airport designator
Station Type Date Time Source
KCUH METAR 2020/11/27 02:55 UTC NOAA

KCUH 270255Z AUTO 00000KT 10SM CLR 09/05 A2995 RMK AO2 T00940050


Station Type Date Time Source
KCUH Decoded METAR 2020/11/27 02:55 UTC NOAA

Cushing, Cushing Municipal Airport, OK, United States (KCUH) 35-56-59N 096-46-22W
Nov 26, 2020 - 09:55 PM EST / 2020.11.27 0255 UTC
Wind: Calm:0
Visibility: 10 mile(s):0
Sky conditions: clear
Temperature: 48.9 F (9.4 C)
Dew Point: 41.0 F (5.0 C)
Relative Humidity: 73%
Pressure (altimeter): 29.95 in. Hg (1014 hPa)
ob: KCUH 270255Z AUTO 00000KT 10SM CLR 09/05 A2995 RMK AO2 T00940050
cycle: 3

Station Type Date Time Source
KCUH TAF UTC NOAA

Error!

Example: see airport list